South Amana, IA (52334)

6:51 AM CDT on August 27, 2016 (GMT -0500)
KIAWILLI3 | | Change Station

Elev 820 ft 41.66 °N, 92.02 °W | Updated 14 seconds ago

Overcast
Overcast
66.4 °F
Feels Like 66.4 °F
N
0.0
Wind Variable Wind from East
Gusts 0.0 mph

Today
High -- | Low -- °F
--% Chance of Precip.
Yesterday
High -- | Low -- °F
Precip. -- in
Pressure 29.98 in
Visibility 3.0 miles
Clouds Overcast 300 ft
Dew Point 64 °F
Humidity 91%
Rainfall 0.63 in
Snow Depth Not available.
6:28 AM 7:48 PM
Waning Crescent, 25% visible
METAR KCID 271052Z 09005KT 3SM BR OVC003 18/18 A2999 RMK AO2 SLP152 T01830183
Pressure 29.98 in
Visibility 3.0 miles
Clouds Overcast 300 ft
Dew Point 64 °F
Humidity 91%
Rainfall 0.63 in
Snow Depth Not available.
6:28 AM 7:48 PM
Waning Crescent, 25% visible
METAR KCID 271052Z 09005KT 3SM BR OVC003 18/18 A2999 RMK AO2 SLP152 T01830183

10-Day Weather Forecast

Almanac

Astronomy

Aug. 27, 2016 Rise Set
Actual Time
Civil Twilight
Nautical Twilight
Astronomical Twilight
Moon
Length of Visible Light
Length of Day
Tomorrow will be .
, % of the Moon is Illuminated

Today's Extremes

State Highs State Lows

Community

WunderPhotos

Upload Photos

1,935,325 photos uploaded!

WunderBlog® & News

Nearby

Air Quality

  Air Quality AQ Index Pollutant
Not available.

Snow Depth

Station Depth Elevation

Earthquake Activity

City Distance Mag. Time & Date
Minimum magnitude displayed is 2.5.

Coastal Water Temperatures

Place Temperature

Stations

Nearby Weather Stations

Station Location Temp. Windchill Dew Point Humidity Wind Precip. Elev Updated Type
                   

Watches & Warnings

There are currently no watches in effect.